Time;durP1;ratioP1;P1;durP2;ratioP2;P2;SDS_P1;SDS_P2;PMS_P1;PMS_P2;Temp;Humidity;BMP_temperature;BMP_pressure;BME280_temperature;BME280_humidity;BME280_pressure;Samples;Min_cycle;Max_cycle;Signal;HPM_P1;HPM_P2
2022/10/04 00:00:28;;;;;;;;;;;16.40;90.90;;;;;;5074507;28;19946;-91
2022/10/04 00:02:56;;;;;;;;;;;16.40;90.70;;;;;;5074608;28;19940;-91
2022/10/04 00:05:23;;;;;;;;;;;16.40;90.70;;;;;;5074298;28;19976;-91
2022/10/04 00:07:51;;;;;;;;;;;16.50;90.60;;;;;;5074640;28;19948;-91
2022/10/04 00:10:23;;;;;;;;;;;16.50;90.50;;;;;;5074734;28;19958;-91
2022/10/04 00:12:55;;;;;;;;;;;16.50;90.20;;;;;;5075062;28;20459;-91
2022/10/04 00:15:29;;;;;;;;;;;16.40;89.90;;;;;;5075092;28;20005;-90
2022/10/04 00:18:06;;;;;;;;;;;16.50;89.80;;;;;;5074077;28;19987;-91
2022/10/04 00:20:47;;;;;;;;;;;16.50;89.80;;;;;;5054698;28;19937;-91
2022/10/04 00:23:22;;;;;;;;;;;16.40;89.80;;;;;;5054874;28;19935;-91
2022/10/04 00:25:47;;;;;;;;;;;16.30;89.90;;;;;;5053472;28;20049;-90
2022/10/04 00:28:15;;;;;;;;;;;16.10;89.80;;;;;;5071300;28;20046;-91
2022/10/04 00:30:41;;;;;;;;;;;16.10;90.00;;;;;;5072773;28;19948;-91
2022/10/04 00:33:06;;;;;;;;;;;16.10;90.80;;;;;;5073073;28;19957;-91
2022/10/04 00:35:34;;;;;;;;;;;16.10;91.00;;;;;;5074687;28;19943;-91
2022/10/04 00:38:05;;;;;;;;;;;16.10;91.30;;;;;;5074380;28;19947;-91
2022/10/04 00:40:54;;;;;;;;;;;16.20;91.50;;;;;;5074052;28;19944;-91
2022/10/04 00:43:24;;;;;;;;;;;16.20;91.40;;;;;;5068844;28;20049;-91
2022/10/04 00:45:52;;;;;;;;;;;16.20;91.30;;;;;;5074336;28;20365;-91
2022/10/04 00:48:30;;;;;;;;;;;16.20;91.30;;;;;;5073055;28;19980;-91
2022/10/04 00:51:00;;;;;;;;;;;16.30;91.20;;;;;;5072459;28;20004;-91
2022/10/04 00:53:41;;;;;;;;;;;16.30;91.00;;;;;;5074264;28;20304;-90
2022/10/04 00:56:10;;;;;;;;;;;16.20;90.90;;;;;;5074266;28;19939;-91
2022/10/04 00:58:43;;;;;;;;;;;16.20;90.80;;;;;;5073295;28;19953;-91
2022/10/04 01:01:09;;;;;;;;;;;16.10;90.70;;;;;;5072473;28;20359;-91
2022/10/04 01:03:37;;;;;;;;;;;16.00;90.50;;;;;;5073747;28;19982;-91
2022/10/04 01:06:04;;;;;;;;;;;15.80;90.80;;;;;;5073836;28;20113;-91
2022/10/04 01:08:35;;;;;;;;;;;15.70;91.00;;;;;;5071971;28;19958;-91
2022/10/04 01:11:03;;;;;;;;;;;15.50;91.60;;;;;;5074020;28;19950;-91
2022/10/04 01:13:30;;;;;;;;;;;15.50;92.10;;;;;;5073881;28;19957;-91
2022/10/04 01:15:59;;;;;;;;;;;15.60;92.30;;;;;;5070736;28;19953;-92
2022/10/04 01:18:25;;;;;;;;;;;15.60;92.20;;;;;;5073006;28;19954;-91
2022/10/04 01:20:56;;;;;;;;;;;15.60;92.40;;;;;;5073769;28;19945;-91
2022/10/04 01:23:35;;;;;;;;;;;15.70;92.30;;;;;;5073708;28;20033;-91
2022/10/04 01:26:02;;;;;;;;;;;15.70;92.10;;;;;;5073088;28;19986;-91
2022/10/04 01:28:27;;;;;;;;;;;15.70;91.90;;;;;;5073281;28;19985;-90
2022/10/04 01:30:53;;;;;;;;;;;15.60;91.90;;;;;;5073004;28;20481;-90
2022/10/04 01:33:19;;;;;;;;;;;15.60;91.90;;;;;;5072926;28;20043;-91
2022/10/04 01:35:45;;;;;;;;;;;15.60;91.90;;;;;;5073460;28;20399;-91
2022/10/04 01:38:11;;;;;;;;;;;15.60;91.90;;;;;;5072997;28;19994;-91
2022/10/04 01:40:42;;;;;;;;;;;15.60;92.00;;;;;;5073328;28;19951;-91
2022/10/04 01:43:09;;;;;;;;;;;15.60;92.10;;;;;;5072098;28;19947;-91
2022/10/04 01:45:42;;;;;;;;;;;15.70;92.40;;;;;;5073289;28;19958;-91
2022/10/04 01:48:11;;;;;;;;;;;15.60;91.90;;;;;;5072350;28;19953;-91
2022/10/04 01:50:40;;;;;;;;;;;15.40;91.50;;;;;;5072880;28;20021;-91
2022/10/04 01:53:18;;;;;;;;;;;15.30;90.30;;;;;;5072547;28;20045;-90
2022/10/04 01:55:47;;;;;;;;;;;15.20;90.30;;;;;;5073249;28;20005;-90
2022/10/04 01:58:16;;;;;;;;;;;15.30;90.70;;;;;;5073316;28;20477;-90
2022/10/04 02:00:47;;;;;;;;;;;15.30;91.00;;;;;;5071562;28;19944;-91
2022/10/04 02:03:26;;;;;;;;;;;15.30;91.30;;;;;;5072403;28;19945;-91
2022/10/04 02:05:55;;;;;;;;;;;15.40;91.80;;;;;;5072703;28;19999;-91
2022/10/04 02:08:24;;;;;;;;;;;15.40;91.80;;;;;;5073122;28;19938;-91
2022/10/04 02:10:50;;;;;;;;;;;15.40;91.70;;;;;;5072430;28;20047;-91
2022/10/04 02:13:20;;;;;;;;;;;15.30;91.70;;;;;;5073139;28;19944;-91
2022/10/04 02:15:46;;;;;;;;;;;15.40;91.80;;;;;;5072233;28;20052;-91
2022/10/04 02:18:13;;;;;;;;;;;15.40;92.00;;;;;;5073084;28;19950;-91
2022/10/04 02:20:40;;;;;;;;;;;15.50;92.10;;;;;;5072463;28;19951;-91
2022/10/04 02:23:06;;;;;;;;;;;15.50;92.10;;;;;;5072995;28;19979;-91
2022/10/04 02:25:34;;;;;;;;;;;15.50;91.90;;;;;;5072653;28;20522;-90
2022/10/04 02:28:00;;;;;;;;;;;15.60;91.90;;;;;;5072927;28;20520;-91
2022/10/04 02:30:25;;;;;;;;;;;15.70;91.70;;;;;;5071307;28;20040;-91
2022/10/04 02:33:01;;;;;;;;;;;15.70;91.50;;;;;;5072038;28;20393;-91
2022/10/04 02:35:28;;;;;;;;;;;15.70;91.10;;;;;;5071628;28;19980;-90
2022/10/04 02:38:01;;;;;;;;;;;15.70;90.80;;;;;;5072129;28;19942;-91
2022/10/04 02:40:29;;;;;;;;;;;15.70;90.80;;;;;;5072864;28;20019;-91
2022/10/04 02:43:09;;;;;;;;;;;15.70;90.70;;;;;;5074368;28;19950;-91
2022/10/04 02:45:54;;;;;;;;;;;15.70;90.70;;;;;;5075354;28;20452;-91
2022/10/04 02:48:28;;;;;;;;;;;15.60;90.80;;;;;;5056949;28;19951;-91
2022/10/04 02:50:55;;;;;;;;;;;15.70;90.80;;;;;;5056528;28;19953;-91
2022/10/04 02:53:25;;;;;;;;;;;15.70;90.90;;;;;;5067226;28;19947;-92
2022/10/04 02:55:51;;;;;;;;;;;15.70;90.70;;;;;;5075812;28;19958;-91
2022/10/04 02:58:19;;;;;;;;;;;15.70;90.60;;;;;;5076526;28;19946;-91
2022/10/04 03:00:47;;;;;;;;;;;15.60;90.50;;;;;;5074786;28;20951;-92
2022/10/04 03:03:22;;;;;;;;;;;15.60;90.50;;;;;;5075219;28;19969;-90
2022/10/04 03:05:56;;;;;;;;;;;15.60;90.50;;;;;;5076239;28;19976;-90
2022/10/04 03:08:22;;;;;;;;;;;15.70;90.20;;;;;;5076347;28;19940;-90
2022/10/04 03:10:49;;;;;;;;;;;15.70;90.10;;;;;;5076269;28;19941;-90
2022/10/04 03:13:18;;;;;;;;;;;15.70;90.10;;;;;;5075447;28;19956;-92
2022/10/04 03:15:45;;;;;;;;;;;15.80;90.10;;;;;;5075361;28;20396;-91
2022/10/04 03:18:10;;;;;;;;;;;15.80;89.90;;;;;;5076072;28;19945;-91
2022/10/04 03:20:37;;;;;;;;;;;15.80;89.80;;;;;;5076121;28;19950;-91
2022/10/04 03:23:03;;;;;;;;;;;15.80;89.60;;;;;;5074746;28;20304;-91
2022/10/04 03:25:34;;;;;;;;;;;15.70;89.40;;;;;;5075339;28;19973;-91
2022/10/04 03:28:00;;;;;;;;;;;15.70;89.50;;;;;;5075948;28;19938;-91
2022/10/04 03:30:26;;;;;;;;;;;15.60;89.70;;;;;;5075933;28;20000;-91
2022/10/04 03:32:52;;;;;;;;;;;15.60;90.00;;;;;;5074926;28;19982;-91
2022/10/04 03:35:29;;;;;;;;;;;15.70;90.50;;;;;;5075845;28;19939;-91
2022/10/04 03:37:56;;;;;;;;;;;15.80;90.50;;;;;;5075777;28;20031;-91
2022/10/04 03:40:26;;;;;;;;;;;15.80;90.60;;;;;;5075722;28;20423;-91
2022/10/04 03:42:52;;;;;;;;;;;15.90;90.40;;;;;;5074603;28;20389;-91
2022/10/04 03:45:18;;;;;;;;;;;15.90;90.30;;;;;;5075558;28;20033;-91
2022/10/04 03:47:44;;;;;;;;;;;15.90;90.30;;;;;;5062670;28;20405;-90
2022/10/04 03:50:11;;;;;;;;;;;15.90;90.40;;;;;;5064131;28;19945;-90
2022/10/04 03:52:36;;;;;;;;;;;15.80;90.60;;;;;;5074650;28;19975;-91
2022/10/04 03:55:05;;;;;;;;;;;15.80;90.50;;;;;;5074866;28;20021;-91
2022/10/04 03:57:31;;;;;;;;;;;15.80;90.40;;;;;;5075322;28;19941;-90
2022/10/04 03:59:57;;;;;;;;;;;15.70;90.60;;;;;;5075115;28;19999;-91
2022/10/04 04:02:31;;;;;;;;;;;15.60;90.70;;;;;;5074164;28;20307;-91
2022/10/04 04:05:05;;;;;;;;;;;15.60;90.70;;;;;;5075099;28;19942;-90
2022/10/04 04:07:37;;;;;;;;;;;15.60;90.70;;;;;;5075186;28;20046;-92
2022/10/04 04:10:05;;;;;;;;;;;15.60;90.80;;;;;;5075000;28;20078;-91
2022/10/04 04:12:39;;;;;;;;;;;15.60;90.70;;;;;;5073592;28;19943;-91
2022/10/04 04:15:09;;;;;;;;;;;15.70;90.50;;;;;;5075352;28;19995;-91
2022/10/04 04:17:42;;;;;;;;;;;15.70;90.10;;;;;;5064272;28;19945;-91
2022/10/04 04:20:20;;;;;;;;;;;15.70;89.80;;;;;;5062626;28;20004;-92
2022/10/04 04:22:50;;;;;;;;;;;15.70;89.60;;;;;;5073009;28;20076;-91
2022/10/04 04:25:16;;;;;;;;;;;15.70;89.30;;;;;;5074797;28;19943;-91
2022/10/04 04:27:42;;;;;;;;;;;15.60;89.10;;;;;;5074642;28;19953;-91
2022/10/04 04:30:14;;;;;;;;;;;15.60;89.00;;;;;;5074847;28;19946;-91
2022/10/04 04:32:40;;;;;;;;;;;15.60;88.90;;;;;;5072496;28;19948;-91
2022/10/04 04:35:16;;;;;;;;;;;15.40;88.90;;;;;;5074640;28;19952;-91
2022/10/04 04:37:42;;;;;;;;;;;15.40;89.00;;;;;;5074435;28;20375;-91
2022/10/04 04:40:17;;;;;;;;;;;15.40;88.80;;;;;;5074396;28;19976;-91
2022/10/04 04:42:43;;;;;;;;;;;15.40;88.70;;;;;;5072020;28;19951;-91
2022/10/04 04:45:17;;;;;;;;;;;15.40;88.60;;;;;;5074380;28;20318;-91
2022/10/04 04:47:50;;;;;;;;;;;15.40;88.50;;;;;;5072133;28;19992;-91
2022/10/04 04:50:18;;;;;;;;;;;15.40;88.40;;;;;;5054330;28;20343;-91
2022/10/04 04:52:45;;;;;;;;;;;15.40;88.30;;;;;;5054267;28;19955;-91
2022/10/04 04:55:24;;;;;;;;;;;15.40;88.10;;;;;;5054329;28;19935;-91
2022/10/04 04:57:51;;;;;;;;;;;15.40;88.00;;;;;;5069758;28;19952;-90
2022/10/04 05:00:18;;;;;;;;;;;15.40;87.90;;;;;;5072813;28;19945;-90
2022/10/04 05:02:51;;;;;;;;;;;15.50;87.80;;;;;;5071440;28;19948;-91
2022/10/04 05:05:37;;;;;;;;;;;15.50;87.70;;;;;;5069616;28;19979;-91
2022/10/04 05:08:11;;;;;;;;;;;15.50;87.60;;;;;;5071280;28;19944;-91
2022/10/04 05:10:38;;;;;;;;;;;15.60;87.30;;;;;;5054005;28;19936;-90
2022/10/04 05:13:04;;;;;;;;;;;15.60;87.00;;;;;;5064856;28;19946;-90
2022/10/04 05:15:34;;;;;;;;;;;15.60;86.70;;;;;;5073337;28;20299;-90
2022/10/04 05:18:01;;;;;;;;;;;15.70;86.30;;;;;;5071325;28;20428;-90
2022/10/04 05:20:27;;;;;;;;;;;15.80;86.00;;;;;;5073317;28;19970;-90
2022/10/04 05:22:53;;;;;;;;;;;15.80;85.80;;;;;;5072373;28;19988;-91
2022/10/04 05:25:25;;;;;;;;;;;15.80;85.70;;;;;;5072157;28;19945;-90
2022/10/04 05:27:52;;;;;;;;;;;15.90;85.40;;;;;;5072822;28;19967;-91
2022/10/04 05:30:45;;;;;;;;;;;15.90;85.20;;;;;;5073294;28;19950;-91
2022/10/04 05:33:13;;;;;;;;;;;16.00;85.10;;;;;;5066651;28;19947;-91
2022/10/04 05:35:41;;;;;;;;;;;16.00;85.20;;;;;;5069336;28;19939;-90
2022/10/04 05:38:16;;;;;;;;;;;16.10;85.00;;;;;;5072254;28;19944;-91
2022/10/04 05:40:49;;;;;;;;;;;16.20;84.30;;;;;;5069813;28;19984;-91
2022/10/04 05:43:33;;;;;;;;;;;16.30;83.60;;;;;;5067989;28;19967;-90
2022/10/04 05:46:17;;;;;;;;;;;16.30;83.40;;;;;;5069006;28;19961;-91
2022/10/04 05:48:44;;;;;;;;;;;16.40;83.10;;;;;;5071969;28;19987;-91
2022/10/04 05:51:20;;;;;;;;;;;16.40;82.80;;;;;;5066115;28;20052;-91
2022/10/04 05:53:46;;;;;;;;;;;16.50;82.30;;;;;;5072534;28;19942;-91
2022/10/04 05:56:17;;;;;;;;;;;16.50;82.00;;;;;;5072010;28;20000;-91
2022/10/04 05:59:06;;;;;;;;;;;16.60;81.60;;;;;;5072424;28;19944;-92
2022/10/04 06:01:37;;;;;;;;;;;16.60;80.70;;;;;;5037230;28;19944;-91
2022/10/04 06:04:11;;;;;;;;;;;16.70;80.30;;;;;;5078244;22;19951;-91
2022/10/04 06:06:39;;;;;;;;;;;16.80;79.70;;;;;;5032082;28;20140;-91
2022/10/04 06:09:14;;;;;;;;;;;16.80;79.20;;;;;;5024196;28;19992;-92
2022/10/04 06:11:43;;;;;;;;;;;16.90;79.10;;;;;;5028717;28;19947;-91
2022/10/04 06:14:09;;;;;;;;;;;17.10;78.30;;;;;;5028808;28;19940;-91
2022/10/04 06:16:41;;;;;;;;;;;17.10;78.10;;;;;;5023568;28;20000;-91
2022/10/04 06:19:22;;;;;;;;;;;17.20;77.90;;;;;;5025612;28;19950;-91
2022/10/04 06:21:48;;;;;;;;;;;17.30;77.60;;;;;;5027403;28;19982;-91
2022/10/04 06:24:24;;;;;;;;;;;17.30;76.80;;;;;;5023174;28;19996;-91
2022/10/04 06:26:53;;;;;;;;;;;17.30;76.60;;;;;;5027209;28;19968;-91
2022/10/04 06:29:24;;;;;;;;;;;17.30;76.40;;;;;;5027434;28;20374;-91
2022/10/04 06:31:50;;;;;;;;;;;17.30;76.30;;;;;;5025383;28;20412;-91
2022/10/04 06:34:18;;;;;;;;;;;17.40;76.10;;;;;;5024013;28;19954;-91
2022/10/04 06:36:43;;;;;;;;;;;17.40;75.70;;;;;;5020135;28;19967;-91
2022/10/04 06:39:09;;;;;;;;;;;17.50;75.40;;;;;;5026857;28;20410;-91
2022/10/04 06:41:58;;;;;;;;;;;17.60;74.90;;;;;;5029083;28;19948;-91
2022/10/04 06:44:50;;;;;;;;;;;17.60;74.90;;;;;;5010688;28;19992;-91
2022/10/04 06:47:42;;;;;;;;;;;17.60;74.20;;;;;;5023502;28;19969;-92
2022/10/04 06:50:16;;;;;;;;;;;17.80;74.10;;;;;;5000260;28;20045;-92
2022/10/04 06:52:54;;;;;;;;;;;17.80;73.30;;;;;;5008706;28;19958;-91
2022/10/04 06:55:23;;;;;;;;;;;17.80;73.50;;;;;;5002659;28;19942;-91
2022/10/04 06:57:51;;;;;;;;;;;17.80;72.80;;;;;;5008588;28;20360;-92
2022/10/04 07:00:25;;;;;;;;;;;17.90;72.70;;;;;;5009808;28;19963;-91
2022/10/04 07:03:13;;;;;;;;;;;17.90;72.80;;;;;;5011276;28;19946;-91
2022/10/04 07:05:54;;;;;;;;;;;17.90;72.50;;;;;;5003958;28;19981;-91
2022/10/04 07:08:32;;;;;;;;;;;18.00;71.70;;;;;;5010180;28;19944;-92
2022/10/04 07:11:02;;;;;;;;;;;18.00;71.50;;;;;;5011340;28;20323;-91
2022/10/04 07:13:27;;;;;;;;;;;18.10;71.10;;;;;;5011491;28;20030;-91
2022/10/04 07:15:58;;;;;;;;;;;18.10;71.30;;;;;;5009643;28;20395;-92
2022/10/04 07:18:42;;;;;;;;;;;18.10;70.70;;;;;;5007529;28;19943;-92
2022/10/04 07:21:10;;;;;;;;;;;18.10;70.60;;;;;;4999284;28;19954;-91
2022/10/04 07:23:45;;;;;;;;;;;18.20;70.70;;;;;;5010854;28;19941;-91
2022/10/04 07:26:18;;;;;;;;;;;18.20;70.20;;;;;;5008497;28;19960;-91
2022/10/04 07:31:29;;;;;;;;;;;18.20;69.80;;;;;;5013999;28;20043;-91
2022/10/04 07:34:15;;;;;;;;;;;18.30;69.10;;;;;;5011901;28;20039;-91
2022/10/04 07:36:49;;;;;;;;;;;18.40;68.70;;;;;;5009613;28;20421;-92
2022/10/04 07:39:17;;;;;;;;;;;18.50;68.80;;;;;;5011487;28;19945;-93
2022/10/04 07:41:46;;;;;;;;;;;18.60;68.90;;;;;;5013385;28;19995;-91
2022/10/04 07:44:14;;;;;;;;;;;18.70;68.30;;;;;;5012135;28;19988;-92
2022/10/04 07:46:59;;;;;;;;;;;18.80;66.30;;;;;;5007824;28;19976;-91
2022/10/04 07:49:25;;;;;;;;;;;18.80;66.00;;;;;;5016559;28;19942;-92
2022/10/04 07:52:09;;;;;;;;;;;18.90;65.90;;;;;;5035365;28;20417;-91
2022/10/04 07:54:38;;;;;;;;;;;19.00;66.00;;;;;;5019976;28;19945;-91
2022/10/04 07:57:09;;;;;;;;;;;19.10;65.50;;;;;;5013962;28;19998;-91
2022/10/04 07:59:51;;;;;;;;;;;19.20;65.30;;;;;;5013194;28;20055;-91
2022/10/04 08:02:39;;;;;;;;;;;19.30;64.80;;;;;;5010442;28;20484;-92
2022/10/04 08:05:07;;;;;;;;;;;19.40;64.40;;;;;;5010773;28;19974;-91
2022/10/04 08:07:52;;;;;;;;;;;19.50;63.90;;;;;;5012260;28;20045;-91
2022/10/04 08:10:22;;;;;;;;;;;19.70;64.10;;;;;;5014314;28;19952;-92
2022/10/04 08:13:03;;;;;;;;;;;19.80;63.60;;;;;;5006690;28;19951;-91
2022/10/04 08:15:33;;;;;;;;;;;19.90;61.90;;;;;;5012480;28;20056;-91
2022/10/04 08:18:17;;;;;;;;;;;19.80;61.80;;;;;;5007733;28;19985;-90
2022/10/04 08:20:46;;;;;;;;;;;19.70;61.80;;;;;;5010083;28;19947;-90
2022/10/04 08:23:23;;;;;;;;;;;19.70;62.40;;;;;;5013751;28;20049;-92
2022/10/04 08:25:48;;;;;;;;;;;19.80;62.40;;;;;;5012542;28;20681;-90
2022/10/04 08:31:09;;;;;;;;;;;19.90;62.20;;;;;;5012421;28;19955;-91
2022/10/04 08:33:38;;;;;;;;;;;20.00;61.70;;;;;;5010302;28;19945;-91
2022/10/04 08:36:24;;;;;;;;;;;20.10;61.20;;;;;;5011243;28;19956;-92
2022/10/04 08:38:53;;;;;;;;;;;20.20;60.60;;;;;;5011815;28;19944;-93
2022/10/04 08:41:24;;;;;;;;;;;20.30;60.00;;;;;;5012647;28;20035;-90
2022/10/04 08:44:04;;;;;;;;;;;20.40;59.50;;;;;;5012191;28;19946;-90
2022/10/04 08:46:32;;;;;;;;;;;20.50;59.60;;;;;;5004493;28;19969;-90
2022/10/04 08:49:01;;;;;;;;;;;20.60;59.20;;;;;;5011103;28;20523;-91
2022/10/04 08:51:32;;;;;;;;;;;20.70;58.70;;;;;;5010827;28;20444;-90
2022/10/04 08:54:10;;;;;;;;;;;20.80;58.40;;;;;;5010185;28;19988;-90
2022/10/04 08:56:55;;;;;;;;;;;21.00;58.00;;;;;;5017605;28;19954;-90
2022/10/04 08:59:45;;;;;;;;;;;21.00;56.60;;;;;;5015878;28;19941;-90
2022/10/04 09:02:45;;;;;;;;;;;21.10;56.60;;;;;;4989826;28;19940;-90
2022/10/04 09:05:13;;;;;;;;;;;21.20;57.30;;;;;;5012692;28;20060;-90
2022/10/04 09:07:51;;;;;;;;;;;21.20;57.10;;;;;;5008703;28;19963;-90
2022/10/04 09:10:19;;;;;;;;;;;21.20;56.30;;;;;;5007740;28;19960;-91
2022/10/04 09:12:46;;;;;;;;;;;21.20;56.60;;;;;;5011788;28;19940;-90
2022/10/04 09:15:30;;;;;;;;;;;21.20;56.40;;;;;;5010031;28;19954;-90
2022/10/04 09:18:02;;;;;;;;;;;21.20;57.40;;;;;;5014695;28;20526;-90
2022/10/04 09:20:33;;;;;;;;;;;21.30;57.20;;;;;;5013275;28;20562;-91
2022/10/04 09:22:59;;;;;;;;;;;21.30;57.30;;;;;;5009052;28;20000;-91
2022/10/04 09:25:34;;;;;;;;;;;21.50;57.00;;;;;;5011684;28;19945;-92
2022/10/04 09:28:19;;;;;;;;;;;21.50;56.70;;;;;;5011648;28;20007;-92
2022/10/04 09:30:47;;;;;;;;;;;21.60;57.20;;;;;;5010272;28;19952;-91
2022/10/04 09:33:28;;;;;;;;;;;21.60;56.30;;;;;;5006372;28;19948;-93
2022/10/04 09:36:10;;;;;;;;;;;21.60;56.40;;;;;;5010311;28;20002;-92
2022/10/04 09:38:41;;;;;;;;;;;21.50;56.10;;;;;;5007895;28;20422;-93
2022/10/04 09:41:25;;;;;;;;;;;21.60;55.70;;;;;;5003417;28;20530;-92
2022/10/04 09:43:54;;;;;;;;;;;21.70;55.50;;;;;;5011489;28;19944;-92
2022/10/04 09:46:38;;;;;;;;;;;21.80;55.10;;;;;;5009341;28;19965;-92
2022/10/04 09:49:06;;;;;;;;;;;21.90;55.10;;;;;;4993667;28;19944;-91
2022/10/04 09:51:41;;;;;;;;;;;22.00;54.40;;;;;;5011419;28;19955;-93
2022/10/04 09:54:37;;;;;;;;;;;22.00;54.20;;;;;;5005370;28;20004;-92
2022/10/04 09:57:40;;;;;;;;;;;22.20;54.30;;;;;;4959682;28;19951;-92
2022/10/04 10:00:09;;;;;;;;;;;22.30;53.90;;;;;;4972708;28;19944;-92
2022/10/04 10:02:39;;;;;;;;;;;22.30;53.60;;;;;;4971929;28;19950;-92
2022/10/04 10:05:07;;;;;;;;;;;22.30;52.90;;;;;;4991095;28;20017;-92
2022/10/04 10:08:02;;;;;;;;;;;22.40;53.00;;;;;;5010848;28;19964;-93
2022/10/04 10:16:04;;;;;;;;;;;22.70;51.80;;;;;;5010518;28;19988;-92
2022/10/04 10:18:33;;;;;;;;;;;22.80;52.30;;;;;;5012387;28;19953;-92
2022/10/04 10:21:17;;;;;;;;;;;22.80;52.40;;;;;;5018024;28;19960;-92
2022/10/04 10:23:49;;;;;;;;;;;22.80;52.70;;;;;;5011306;28;19940;-93
2022/10/04 10:26:28;;;;;;;;;;;22.80;53.00;;;;;;5013244;28;19961;-92
2022/10/04 10:28:56;;;;;;;;;;;22.70;53.40;;;;;;5028085;28;20047;-92
2022/10/04 10:31:34;;;;;;;;;;;22.50;54.10;;;;;;5010538;28;20391;-92
2022/10/04 10:34:18;;;;;;;;;;;22.60;54.20;;;;;;5013188;28;19945;-93
2022/10/04 10:36:51;;;;;;;;;;;22.80;54.40;;;;;;5013301;28;19974;-92
2022/10/04 10:39:36;;;;;;;;;;;22.90;54.60;;;;;;5012143;28;20026;-92
2022/10/04 10:42:10;;;;;;;;;;;22.90;53.90;;;;;;4993657;28;19940;-93
2022/10/04 10:44:36;;;;;;;;;;;22.90;54.20;;;;;;4993579;28;19942;-92
2022/10/04 10:47:04;;;;;;;;;;;22.90;54.60;;;;;;4999888;28;19987;-92
2022/10/04 10:49:43;;;;;;;;;;;22.90;54.70;;;;;;5013187;28;19937;-92
2022/10/04 10:52:24;;;;;;;;;;;22.90;54.50;;;;;;5012459;28;20010;-92
2022/10/04 10:55:06;;;;;;;;;;;23.00;54.80;;;;;;5012571;28;19944;-93
2022/10/04 10:57:50;;;;;;;;;;;23.10;54.60;;;;;;5013098;28;19948;-92
2022/10/04 11:00:22;;;;;;;;;;;23.30;54.80;;;;;;5012832;28;19961;-92
2022/10/04 11:03:01;;;;;;;;;;;23.40;53.70;;;;;;5012507;28;19977;-93
2022/10/04 11:05:42;;;;;;;;;;;23.50;54.20;;;;;;5015038;28;20340;-93
2022/10/04 11:08:34;;;;;;;;;;;23.60;53.50;;;;;;5015251;28;20407;-93
2022/10/04 11:11:08;;;;;;;;;;;23.70;53.30;;;;;;5000794;28;20014;-92
2022/10/04 11:13:34;;;;;;;;;;;23.80;54.80;;;;;;5015548;28;19942;-93
2022/10/04 11:16:18;;;;;;;;;;;23.70;54.40;;;;;;5015438;28;20311;-93
2022/10/04 11:18:46;;;;;;;;;;;23.80;55.50;;;;;;5016063;28;20355;-93
2022/10/04 11:21:31;;;;;;;;;;;24.00;53.20;;;;;;5015142;28;20458;-92
2022/10/04 11:24:13;;;;;;;;;;;24.10;52.80;;;;;;5014952;28;19980;-92
2022/10/04 11:26:55;;;;;;;;;;;24.20;52.40;;;;;;5015816;28;19959;-93
2022/10/04 11:29:30;;;;;;;;;;;24.40;52.10;;;;;;5013881;28;20312;-92
2022/10/04 11:31:58;;;;;;;;;;;24.60;51.80;;;;;;5013994;28;19997;-92
2022/10/04 11:34:42;;;;;;;;;;;24.70;51.40;;;;;;5018627;28;20012;-92
2022/10/04 11:37:14;;;;;;;;;;;24.70;51.50;;;;;;5014284;28;19943;-92
2022/10/04 11:39:40;;;;;;;;;;;24.60;51.00;;;;;;5011864;28;19954;-93
2022/10/04 11:42:10;;;;;;;;;;;24.60;51.50;;;;;;5014782;28;20432;-92
2022/10/04 11:44:40;;;;;;;;;;;24.50;51.50;;;;;;5027800;28;19965;-92
2022/10/04 11:47:14;;;;;;;;;;;24.50;52.60;;;;;;5019067;28;19965;-92
2022/10/04 11:49:46;;;;;;;;;;;24.40;52.60;;;;;;5024531;28;19949;-92
2022/10/04 11:52:18;;;;;;;;;;;24.40;52.90;;;;;;5017648;28;20047;-92
2022/10/04 11:55:03;;;;;;;;;;;24.30;55.50;;;;;;5018123;28;19951;-92
2022/10/04 11:57:31;;;;;;;;;;;24.30;54.80;;;;;;4998913;28;19973;-92
2022/10/04 12:00:03;;;;;;;;;;;24.40;54.30;;;;;;5025279;28;20053;-93
2022/10/04 12:02:32;;;;;;;;;;;24.50;54.30;;;;;;5018413;28;19983;-92
2022/10/04 12:04:57;;;;;;;;;;;24.50;54.60;;;;;;5004172;28;19972;-92
2022/10/04 12:07:40;;;;;;;;;;;24.70;53.70;;;;;;5019579;28;20020;-92
2022/10/04 12:10:17;;;;;;;;;;;24.90;52.00;;;;;;5010288;28;20447;-92
2022/10/04 12:12:48;;;;;;;;;;;25.00;51.50;;;;;;5015439;28;20053;-92
2022/10/04 12:15:21;;;;;;;;;;;25.10;51.30;;;;;;5013555;28;19958;-92
2022/10/04 12:17:58;;;;;;;;;;;25.30;52.20;;;;;;5010001;28;19952;-92
2022/10/04 12:20:30;;;;;;;;;;;25.20;52.00;;;;;;5013251;28;19945;-92
2022/10/04 12:22:59;;;;;;;;;;;24.90;53.80;;;;;;5012036;28;20461;-93
2022/10/04 12:25:34;;;;;;;;;;;24.60;52.60;;;;;;5015347;28;19945;-91
2022/10/04 12:28:26;;;;;;;;;;;24.30;53.30;;;;;;5016058;28;19999;-91
2022/10/04 12:30:54;;;;;;;;;;;24.10;54.60;;;;;;5015239;28;20305;-92
2022/10/04 12:33:38;;;;;;;;;;;24.20;55.00;;;;;;5012670;28;19950;-93
2022/10/04 12:36:23;;;;;;;;;;;24.20;55.30;;;;;;4996045;28;19953;-92
2022/10/04 12:38:55;;;;;;;;;;;24.20;55.10;;;;;;5014666;28;20436;-93
2022/10/04 12:41:50;;;;;;;;;;;24.30;54.70;;;;;;5013038;28;20367;-92
2022/10/04 12:44:24;;;;;;;;;;;24.30;55.00;;;;;;5000151;28;19956;-92
2022/10/04 12:47:08;;;;;;;;;;;24.20;54.30;;;;;;5015920;28;20053;-92
2022/10/04 12:49:47;;;;;;;;;;;24.10;54.40;;;;;;5011051;28;20411;-92
2022/10/04 12:52:22;;;;;;;;;;;23.80;55.70;;;;;;5012670;28;19964;-92
2022/10/04 12:54:53;;;;;;;;;;;23.60;56.00;;;;;;5015363;28;19943;-92
2022/10/04 12:57:24;;;;;;;;;;;23.70;56.70;;;;;;5015133;28;20449;-93
2022/10/04 13:00:08;;;;;;;;;;;23.70;56.80;;;;;;5011578;28;19937;-92
2022/10/04 13:02:41;;;;;;;;;;;23.80;56.90;;;;;;5006451;28;19941;-93
2022/10/04 13:05:16;;;;;;;;;;;23.80;56.80;;;;;;5010011;28;20019;-93
2022/10/04 13:07:50;;;;;;;;;;;23.60;57.00;;;;;;5011328;28;19967;-93
2022/10/04 13:10:21;;;;;;;;;;;23.50;57.60;;;;;;5014017;28;19958;-92
2022/10/04 13:12:59;;;;;;;;;;;23.50;56.70;;;;;;5010639;28;20005;-92
2022/10/04 13:15:33;;;;;;;;;;;23.60;57.00;;;;;;5008399;28;20029;-93
2022/10/04 13:18:22;;;;;;;;;;;23.50;57.10;;;;;;5004980;28;20035;-92
2022/10/04 13:20:53;;;;;;;;;;;23.50;57.70;;;;;;5019603;28;19944;-93
2022/10/04 13:23:38;;;;;;;;;;;23.30;57.20;;;;;;5016414;28;19949;-92
2022/10/04 13:26:09;;;;;;;;;;;23.20;58.60;;;;;;5016353;28;20461;-93
2022/10/04 13:28:45;;;;;;;;;;;23.20;57.90;;;;;;5013390;28;20043;-92
2022/10/04 13:31:23;;;;;;;;;;;23.10;57.70;;;;;;5013898;28;19950;-91
2022/10/04 13:34:01;;;;;;;;;;;23.00;59.10;;;;;;5008608;28;20408;-92
2022/10/04 13:36:31;;;;;;;;;;;22.80;59.30;;;;;;5010777;28;19990;-92
2022/10/04 13:39:21;;;;;;;;;;;22.70;59.50;;;;;;5011144;28;20401;-92
2022/10/04 13:42:05;;;;;;;;;;;22.90;59.10;;;;;;5007583;28;19951;-92
2022/10/04 13:44:33;;;;;;;;;;;23.00;58.00;;;;;;5008968;28;19949;-93
2022/10/04 13:47:04;;;;;;;;;;;23.20;58.20;;;;;;5005927;28;20430;-92
2022/10/04 13:49:45;;;;;;;;;;;23.50;57.60;;;;;;5007447;28;19991;-91
2022/10/04 13:58:13;;;;;;;;;;;25.20;53.10;;;;;;5011354;28;20059;-93
2022/10/04 14:00:48;;;;;;;;;;;26.20;50.20;;;;;;5009568;28;19970;-93
2022/10/04 14:03:37;;;;;;;;;;;26.90;48.70;;;;;;5010038;28;19961;-93
2022/10/04 14:06:18;;;;;;;;;;;27.60;46.50;;;;;;5068693;23;19975;-92
2022/10/04 14:08:54;;;;;;;;;;;27.70;46.30;;;;;;5063955;28;19965;-92
2022/10/04 14:11:40;;;;;;;;;;;28.10;45.90;;;;;;5069758;28;19952;-92
2022/10/04 14:14:17;;;;;;;;;;;28.20;45.30;;;;;;5069502;28;19942;-92
2022/10/04 14:16:57;;;;;;;;;;;28.30;44.50;;;;;;5070349;28;20032;-92
2022/10/04 14:19:41;;;;;;;;;;;28.00;46.10;;;;;;5066581;28;20423;-92
2022/10/04 14:22:07;;;;;;;;;;;27.50;46.40;;;;;;5067985;28;19951;-92
2022/10/04 14:24:35;;;;;;;;;;;26.90;47.10;;;;;;5071818;28;19953;-93
2022/10/04 14:27:10;;;;;;;;;;;27.20;46.80;;;;;;5064565;28;19971;-93
2022/10/04 14:29:35;;;;;;;;;;;27.80;45.00;;;;;;5071976;28;19955;-92
2022/10/04 14:32:07;;;;;;;;;;;28.30;44.10;;;;;;5070656;28;19948;-93
2022/10/04 14:34:35;;;;;;;;;;;28.70;43.80;;;;;;5081414;28;19946;-93
2022/10/04 14:37:07;;;;;;;;;;;28.60;44.60;;;;;;5073393;28;20003;-93
2022/10/04 14:39:32;;;;;;;;;;;28.70;43.60;;;;;;5088298;28;19939;-94
2022/10/04 14:41:58;;;;;;;;;;;28.40;44.70;;;;;;5076053;28;19947;-93
2022/10/04 14:44:32;;;;;;;;;;;28.90;43.90;;;;;;5074928;28;20004;-92
2022/10/04 14:47:04;;;;;;;;;;;29.30;41.70;;;;;;5075867;28;19970;-93
2022/10/04 14:49:41;;;;;;;;;;;29.00;42.00;;;;;;5068259;28;20004;-93
2022/10/04 14:52:25;;;;;;;;;;;28.60;42.90;;;;;;5080518;28;19957;-92
2022/10/04 14:55:11;;;;;;;;;;;28.10;43.90;;;;;;5075830;28;20030;-92
2022/10/04 14:57:52;;;;;;;;;;;27.40;45.40;;;;;;5065445;28;20399;-93
2022/10/04 15:00:18;;;;;;;;;;;26.50;47.60;;;;;;5073058;28;19965;-92
2022/10/04 15:02:48;;;;;;;;;;;25.80;49.80;;;;;;5075028;28;20025;-92
2022/10/04 15:05:30;;;;;;;;;;;25.40;50.90;;;;;;5075385;28;20085;-92
2022/10/04 15:08:14;;;;;;;;;;;25.00;53.00;;;;;;5071664;28;20063;-92